sensor_id;sensor_type;location;lat;lon;timestamp;P1;durP1;ratioP1;P2;durP2;ratioP2
8861;SDS011;4799;50.996;4.754;2022-09-29T00:01:28;21.20;;;19.40;;
8861;SDS011;4799;50.996;4.754;2022-09-29T00:03:54;20.00;;;18.20;;
8861;SDS011;4799;50.996;4.754;2022-09-29T00:06:20;21.87;;;20.07;;
8861;SDS011;4799;50.996;4.754;2022-09-29T00:08:46;21.50;;;19.47;;
8861;SDS011;4799;50.996;4.754;2022-09-29T00:11:13;21.60;;;19.77;;
8861;SDS011;4799;50.996;4.754;2022-09-29T00:13:41;20.50;;;18.80;;
8861;SDS011;4799;50.996;4.754;2022-09-29T00:16:08;21.00;;;19.10;;
8861;SDS011;4799;50.996;4.754;2022-09-29T00:18:34;22.30;;;20.23;;
8861;SDS011;4799;50.996;4.754;2022-09-29T00:21:02;22.53;;;20.53;;
8861;SDS011;4799;50.996;4.754;2022-09-29T00:23:33;22.50;;;20.47;;
8861;SDS011;4799;50.996;4.754;2022-09-29T00:26:05;24.73;;;22.43;;
8861;SDS011;4799;50.996;4.754;2022-09-29T00:28:38;21.53;;;19.63;;
8861;SDS011;4799;50.996;4.754;2022-09-29T00:31:06;21.20;;;18.90;;
8861;SDS011;4799;50.996;4.754;2022-09-29T00:33:37;19.93;;;18.27;;
8861;SDS011;4799;50.996;4.754;2022-09-29T00:36:05;20.67;;;18.70;;
8861;SDS011;4799;50.996;4.754;2022-09-29T00:38:33;22.57;;;20.37;;
8861;SDS011;4799;50.996;4.754;2022-09-29T00:41:00;20.43;;;18.57;;
8861;SDS011;4799;50.996;4.754;2022-09-29T00:46:21;23.23;;;21.13;;
8861;SDS011;4799;50.996;4.754;2022-09-29T00:48:52;21.17;;;19.17;;
8861;SDS011;4799;50.996;4.754;2022-09-29T00:51:20;19.80;;;18.10;;
8861;SDS011;4799;50.996;4.754;2022-09-29T00:53:46;21.27;;;19.33;;
8861;SDS011;4799;50.996;4.754;2022-09-29T00:56:13;23.20;;;21.23;;
8861;SDS011;4799;50.996;4.754;2022-09-29T00:58:43;23.17;;;20.97;;
8861;SDS011;4799;50.996;4.754;2022-09-29T01:01:24;17.87;;;16.27;;
8861;SDS011;4799;50.996;4.754;2022-09-29T01:03:54;18.03;;;16.37;;
8861;SDS011;4799;50.996;4.754;2022-09-29T01:06:29;17.07;;;15.57;;
8861;SDS011;4799;50.996;4.754;2022-09-29T01:09:05;16.53;;;15.13;;
8861;SDS011;4799;50.996;4.754;2022-09-29T01:11:34;20.23;;;18.33;;
8861;SDS011;4799;50.996;4.754;2022-09-29T01:14:01;21.10;;;19.30;;
8861;SDS011;4799;50.996;4.754;2022-09-29T01:16:30;20.50;;;18.77;;
8861;SDS011;4799;50.996;4.754;2022-09-29T01:18:57;18.83;;;17.07;;
8861;SDS011;4799;50.996;4.754;2022-09-29T01:21:42;17.23;;;15.83;;
8861;SDS011;4799;50.996;4.754;2022-09-29T01:40:56;25.10;;;22.70;;
8861;SDS011;4799;50.996;4.754;2022-09-29T01:43:31;23.50;;;21.27;;
8861;SDS011;4799;50.996;4.754;2022-09-29T01:46:03;24.17;;;21.77;;
8861;SDS011;4799;50.996;4.754;2022-09-29T01:48:37;18.27;;;16.80;;
8861;SDS011;4799;50.996;4.754;2022-09-29T01:51:10;21.93;;;19.93;;
8861;SDS011;4799;50.996;4.754;2022-09-29T01:53:45;22.17;;;20.17;;
8861;SDS011;4799;50.996;4.754;2022-09-29T01:56:29;24.07;;;21.67;;
8861;SDS011;4799;50.996;4.754;2022-09-29T01:59:13;21.10;;;19.33;;
8861;SDS011;4799;50.996;4.754;2022-09-29T02:01:46;22.23;;;20.13;;
8861;SDS011;4799;50.996;4.754;2022-09-29T02:04:17;26.83;;;24.30;;
8861;SDS011;4799;50.996;4.754;2022-09-29T02:06:56;22.53;;;20.53;;
8861;SDS011;4799;50.996;4.754;2022-09-29T02:09:32;22.40;;;20.23;;
8861;SDS011;4799;50.996;4.754;2022-09-29T02:12:03;28.47;;;25.37;;
8861;SDS011;4799;50.996;4.754;2022-09-29T02:14:38;26.43;;;23.83;;
8861;SDS011;4799;50.996;4.754;2022-09-29T02:17:13;24.57;;;22.27;;
8861;SDS011;4799;50.996;4.754;2022-09-29T02:19:45;27.47;;;24.87;;
8861;SDS011;4799;50.996;4.754;2022-09-29T02:22:13;26.93;;;24.30;;
8861;SDS011;4799;50.996;4.754;2022-09-29T02:24:39;27.03;;;24.37;;
8861;SDS011;4799;50.996;4.754;2022-09-29T02:27:06;30.90;;;27.70;;
8861;SDS011;4799;50.996;4.754;2022-09-29T02:29:32;24.70;;;22.37;;
8861;SDS011;4799;50.996;4.754;2022-09-29T02:31:59;26.90;;;24.30;;
8861;SDS011;4799;50.996;4.754;2022-09-29T02:34:27;26.80;;;24.13;;
8861;SDS011;4799;50.996;4.754;2022-09-29T02:40:24;23.77;;;21.43;;
8861;SDS011;4799;50.996;4.754;2022-09-29T02:56:28;22.20;;;20.00;;
8861;SDS011;4799;50.996;4.754;2022-09-29T02:59:20;22.23;;;20.03;;
8861;SDS011;4799;50.996;4.754;2022-09-29T03:01:52;22.63;;;20.43;;
8861;SDS011;4799;50.996;4.754;2022-09-29T03:04:22;21.33;;;19.33;;
8861;SDS011;4799;50.996;4.754;2022-09-29T03:06:50;21.67;;;19.47;;
8861;SDS011;4799;50.996;4.754;2022-09-29T03:09:16;21.67;;;19.67;;
8861;SDS011;4799;50.996;4.754;2022-09-29T03:11:42;19.80;;;17.80;;
8861;SDS011;4799;50.996;4.754;2022-09-29T03:14:08;19.80;;;17.93;;
8861;SDS011;4799;50.996;4.754;2022-09-29T03:16:34;20.50;;;18.37;;
8861;SDS011;4799;50.996;4.754;2022-09-29T03:19:01;24.00;;;21.73;;
8861;SDS011;4799;50.996;4.754;2022-09-29T03:21:28;24.60;;;22.00;;
8861;SDS011;4799;50.996;4.754;2022-09-29T03:23:53;25.50;;;22.80;;
8861;SDS011;4799;50.996;4.754;2022-09-29T03:26:19;22.07;;;19.97;;
8861;SDS011;4799;50.996;4.754;2022-09-29T03:28:45;25.80;;;22.93;;
8861;SDS011;4799;50.996;4.754;2022-09-29T03:31:11;24.80;;;22.43;;
8861;SDS011;4799;50.996;4.754;2022-09-29T03:33:37;24.97;;;22.30;;
8861;SDS011;4799;50.996;4.754;2022-09-29T03:36:05;25.77;;;22.97;;
8861;SDS011;4799;50.996;4.754;2022-09-29T03:38:31;26.53;;;23.77;;
8861;SDS011;4799;50.996;4.754;2022-09-29T03:40:57;28.10;;;24.27;;
8861;SDS011;4799;50.996;4.754;2022-09-29T03:43:23;20.97;;;19.00;;
8861;SDS011;4799;50.996;4.754;2022-09-29T03:45:49;25.23;;;22.40;;
8861;SDS011;4799;50.996;4.754;2022-09-29T03:48:16;24.90;;;22.23;;
8861;SDS011;4799;50.996;4.754;2022-09-29T03:50:46;24.80;;;21.70;;
8861;SDS011;4799;50.996;4.754;2022-09-29T03:53:12;24.33;;;21.90;;
8861;SDS011;4799;50.996;4.754;2022-09-29T03:55:38;20.97;;;18.93;;
8861;SDS011;4799;50.996;4.754;2022-09-29T03:58:04;21.53;;;19.20;;
8861;SDS011;4799;50.996;4.754;2022-09-29T04:00:30;24.33;;;21.77;;
8861;SDS011;4799;50.996;4.754;2022-09-29T04:02:57;22.80;;;20.40;;
8861;SDS011;4799;50.996;4.754;2022-09-29T04:05:23;23.60;;;21.30;;
8861;SDS011;4799;50.996;4.754;2022-09-29T04:07:49;22.43;;;20.17;;
8861;SDS011;4799;50.996;4.754;2022-09-29T04:10:15;20.73;;;18.53;;
8861;SDS011;4799;50.996;4.754;2022-09-29T04:12:41;22.73;;;20.57;;
8861;SDS011;4799;50.996;4.754;2022-09-29T04:15:06;25.40;;;22.43;;
8861;SDS011;4799;50.996;4.754;2022-09-29T04:17:32;20.93;;;18.83;;
8861;SDS011;4799;50.996;4.754;2022-09-29T04:19:58;19.03;;;16.90;;
8861;SDS011;4799;50.996;4.754;2022-09-29T04:22:24;22.23;;;19.93;;
8861;SDS011;4799;50.996;4.754;2022-09-29T04:24:50;21.63;;;19.53;;
8861;SDS011;4799;50.996;4.754;2022-09-29T04:27:16;17.77;;;16.00;;
8861;SDS011;4799;50.996;4.754;2022-09-29T04:29:43;17.40;;;15.70;;
8861;SDS011;4799;50.996;4.754;2022-09-29T04:32:09;21.10;;;18.80;;
8861;SDS011;4799;50.996;4.754;2022-09-29T04:34:34;21.63;;;19.23;;
8861;SDS011;4799;50.996;4.754;2022-09-29T04:37:01;21.57;;;19.47;;
8861;SDS011;4799;50.996;4.754;2022-09-29T04:39:27;28.07;;;24.30;;
8861;SDS011;4799;50.996;4.754;2022-09-29T04:41:53;23.17;;;19.67;;
8861;SDS011;4799;50.996;4.754;2022-09-29T04:44:19;20.73;;;18.70;;
8861;SDS011;4799;50.996;4.754;2022-09-29T04:46:50;20.37;;;18.33;;
8861;SDS011;4799;50.996;4.754;2022-09-29T04:49:16;19.77;;;17.80;;
8861;SDS011;4799;50.996;4.754;2022-09-29T04:51:42;27.07;;;24.10;;
8861;SDS011;4799;50.996;4.754;2022-09-29T04:54:08;24.27;;;21.33;;
8861;SDS011;4799;50.996;4.754;2022-09-29T04:56:34;20.37;;;18.23;;
8861;SDS011;4799;50.996;4.754;2022-09-29T04:59:00;22.10;;;19.83;;
8861;SDS011;4799;50.996;4.754;2022-09-29T05:01:25;23.43;;;20.93;;
8861;SDS011;4799;50.996;4.754;2022-09-29T05:03:52;20.83;;;18.60;;
8861;SDS011;4799;50.996;4.754;2022-09-29T05:06:17;23.87;;;20.93;;
8861;SDS011;4799;50.996;4.754;2022-09-29T05:08:43;18.53;;;16.53;;
8861;SDS011;4799;50.996;4.754;2022-09-29T05:11:09;19.67;;;17.67;;
8861;SDS011;4799;50.996;4.754;2022-09-29T05:13:36;19.27;;;17.37;;
8861;SDS011;4799;50.996;4.754;2022-09-29T05:16:02;19.17;;;17.20;;
8861;SDS011;4799;50.996;4.754;2022-09-29T05:18:28;26.30;;;23.50;;
8861;SDS011;4799;50.996;4.754;2022-09-29T05:20:55;23.73;;;21.17;;
8861;SDS011;4799;50.996;4.754;2022-09-29T05:23:21;25.37;;;20.10;;
8861;SDS011;4799;50.996;4.754;2022-09-29T05:25:46;19.97;;;18.03;;
8861;SDS011;4799;50.996;4.754;2022-09-29T05:28:12;21.80;;;19.27;;
8861;SDS011;4799;50.996;4.754;2022-09-29T05:30:39;20.43;;;18.17;;
8861;SDS011;4799;50.996;4.754;2022-09-29T05:33:06;19.23;;;17.33;;
8861;SDS011;4799;50.996;4.754;2022-09-29T05:35:32;21.33;;;19.10;;
8861;SDS011;4799;50.996;4.754;2022-09-29T05:37:58;19.60;;;16.83;;
8861;SDS011;4799;50.996;4.754;2022-09-29T05:40:23;19.87;;;17.80;;
8861;SDS011;4799;50.996;4.754;2022-09-29T05:42:50;18.97;;;16.97;;
8861;SDS011;4799;50.996;4.754;2022-09-29T05:45:16;25.73;;;22.47;;
8861;SDS011;4799;50.996;4.754;2022-09-29T05:47:43;21.73;;;19.23;;
8861;SDS011;4799;50.996;4.754;2022-09-29T05:50:10;26.70;;;23.20;;
8861;SDS011;4799;50.996;4.754;2022-09-29T05:52:36;26.00;;;20.97;;
8861;SDS011;4799;50.996;4.754;2022-09-29T05:55:03;25.83;;;21.43;;
8861;SDS011;4799;50.996;4.754;2022-09-29T05:57:29;22.13;;;19.57;;
8861;SDS011;4799;50.996;4.754;2022-09-29T05:59:55;19.33;;;17.30;;
8861;SDS011;4799;50.996;4.754;2022-09-29T06:02:21;21.37;;;19.07;;
8861;SDS011;4799;50.996;4.754;2022-09-29T06:04:47;22.23;;;19.07;;
8861;SDS011;4799;50.996;4.754;2022-09-29T06:07:13;26.23;;;21.60;;
8861;SDS011;4799;50.996;4.754;2022-09-29T06:09:39;26.43;;;20.27;;
8861;SDS011;4799;50.996;4.754;2022-09-29T06:12:05;25.13;;;21.10;;
8861;SDS011;4799;50.996;4.754;2022-09-29T06:14:30;24.27;;;21.20;;
8861;SDS011;4799;50.996;4.754;2022-09-29T06:16:56;22.73;;;20.40;;
8861;SDS011;4799;50.996;4.754;2022-09-29T06:19:22;22.90;;;20.43;;
8861;SDS011;4799;50.996;4.754;2022-09-29T06:21:47;24.13;;;21.40;;
8861;SDS011;4799;50.996;4.754;2022-09-29T06:24:13;24.53;;;22.03;;
8861;SDS011;4799;50.996;4.754;2022-09-29T06:26:39;23.47;;;21.07;;
8861;SDS011;4799;50.996;4.754;2022-09-29T06:29:05;25.13;;;22.43;;
8861;SDS011;4799;50.996;4.754;2022-09-29T06:31:31;23.00;;;20.70;;
8861;SDS011;4799;50.996;4.754;2022-09-29T06:33:58;25.17;;;22.57;;
8861;SDS011;4799;50.996;4.754;2022-09-29T06:39:23;22.43;;;20.10;;
8861;SDS011;4799;50.996;4.754;2022-09-29T06:41:49;22.83;;;20.43;;
8861;SDS011;4799;50.996;4.754;2022-09-29T06:44:24;22.80;;;20.50;;
8861;SDS011;4799;50.996;4.754;2022-09-29T06:46:50;25.60;;;22.37;;
8861;SDS011;4799;50.996;4.754;2022-09-29T06:49:17;25.27;;;22.67;;
8861;SDS011;4799;50.996;4.754;2022-09-29T06:51:44;24.13;;;21.63;;
8861;SDS011;4799;50.996;4.754;2022-09-29T06:54:13;29.37;;;26.47;;
8861;SDS011;4799;50.996;4.754;2022-09-29T06:56:41;27.07;;;24.17;;
8861;SDS011;4799;50.996;4.754;2022-09-29T06:59:10;26.87;;;24.17;;
8861;SDS011;4799;50.996;4.754;2022-09-29T07:01:35;25.60;;;22.90;;
8861;SDS011;4799;50.996;4.754;2022-09-29T07:04:01;26.70;;;23.87;;
8861;SDS011;4799;50.996;4.754;2022-09-29T07:06:27;28.13;;;25.20;;
8861;SDS011;4799;50.996;4.754;2022-09-29T07:08:54;25.77;;;23.07;;
8861;SDS011;4799;50.996;4.754;2022-09-29T07:11:20;26.77;;;23.90;;
8861;SDS011;4799;50.996;4.754;2022-09-29T07:13:46;25.70;;;23.00;;
8861;SDS011;4799;50.996;4.754;2022-09-29T07:16:12;26.80;;;24.00;;
8861;SDS011;4799;50.996;4.754;2022-09-29T07:18:39;27.17;;;23.87;;
8861;SDS011;4799;50.996;4.754;2022-09-29T07:21:06;31.60;;;26.10;;
8861;SDS011;4799;50.996;4.754;2022-09-29T07:23:34;24.93;;;22.43;;
8861;SDS011;4799;50.996;4.754;2022-09-29T07:26:01;26.60;;;23.80;;
8861;SDS011;4799;50.996;4.754;2022-09-29T07:28:27;27.93;;;23.73;;
8861;SDS011;4799;50.996;4.754;2022-09-29T07:31:00;26.40;;;23.67;;
8861;SDS011;4799;50.996;4.754;2022-09-29T07:33:27;27.40;;;23.60;;
8861;SDS011;4799;50.996;4.754;2022-09-29T07:35:54;26.50;;;23.50;;
8861;SDS011;4799;50.996;4.754;2022-09-29T07:38:21;24.47;;;21.93;;
8861;SDS011;4799;50.996;4.754;2022-09-29T07:40:47;25.77;;;21.60;;
8861;SDS011;4799;50.996;4.754;2022-09-29T07:43:13;23.17;;;20.67;;
8861;SDS011;4799;50.996;4.754;2022-09-29T07:45:45;27.10;;;22.00;;
8861;SDS011;4799;50.996;4.754;2022-09-29T07:48:15;25.90;;;21.93;;
8861;SDS011;4799;50.996;4.754;2022-09-29T07:50:42;27.13;;;23.63;;
8861;SDS011;4799;50.996;4.754;2022-09-29T07:53:09;26.40;;;23.60;;
8861;SDS011;4799;50.996;4.754;2022-09-29T07:55:36;27.00;;;22.13;;
8861;SDS011;4799;50.996;4.754;2022-09-29T07:58:02;22.63;;;20.00;;
8861;SDS011;4799;50.996;4.754;2022-09-29T08:00:28;26.87;;;21.63;;
8861;SDS011;4799;50.996;4.754;2022-09-29T08:02:58;24.40;;;21.07;;
8861;SDS011;4799;50.996;4.754;2022-09-29T08:05:31;22.40;;;20.10;;
8861;SDS011;4799;50.996;4.754;2022-09-29T08:07:58;21.67;;;19.40;;
8861;SDS011;4799;50.996;4.754;2022-09-29T08:10:25;20.93;;;18.53;;
8861;SDS011;4799;50.996;4.754;2022-09-29T08:12:52;23.13;;;18.30;;
8861;SDS011;4799;50.996;4.754;2022-09-29T08:15:19;18.87;;;16.83;;
8861;SDS011;4799;50.996;4.754;2022-09-29T08:17:45;18.73;;;16.73;;
8861;SDS011;4799;50.996;4.754;2022-09-29T08:20:11;19.27;;;17.27;;
8861;SDS011;4799;50.996;4.754;2022-09-29T08:22:36;20.73;;;17.67;;
8861;SDS011;4799;50.996;4.754;2022-09-29T08:25:02;20.53;;;17.37;;
8861;SDS011;4799;50.996;4.754;2022-09-29T08:27:28;19.27;;;17.23;;
8861;SDS011;4799;50.996;4.754;2022-09-29T08:29:54;17.97;;;16.17;;
8861;SDS011;4799;50.996;4.754;2022-09-29T08:32:21;17.53;;;15.63;;
8861;SDS011;4799;50.996;4.754;2022-09-29T08:34:46;19.07;;;15.97;;
8861;SDS011;4799;50.996;4.754;2022-09-29T08:37:12;19.13;;;15.03;;
8861;SDS011;4799;50.996;4.754;2022-09-29T08:39:38;16.83;;;15.07;;
8861;SDS011;4799;50.996;4.754;2022-09-29T08:42:10;19.67;;;15.40;;
8861;SDS011;4799;50.996;4.754;2022-09-29T08:47:33;16.03;;;14.33;;
8861;SDS011;4799;50.996;4.754;2022-09-29T08:50:13;15.90;;;13.87;;
8861;SDS011;4799;50.996;4.754;2022-09-29T08:52:54;15.47;;;12.73;;
8861;SDS011;4799;50.996;4.754;2022-09-29T08:55:32;17.33;;;13.53;;
8861;SDS011;4799;50.996;4.754;2022-09-29T08:58:07;15.97;;;13.33;;
8861;SDS011;4799;50.996;4.754;2022-09-29T09:00:49;14.50;;;13.00;;
8861;SDS011;4799;50.996;4.754;2022-09-29T09:09:07;13.80;;;11.63;;
8861;SDS011;4799;50.996;4.754;2022-09-29T09:14:32;11.77;;;10.57;;
8861;SDS011;4799;50.996;4.754;2022-09-29T09:17:19;13.17;;;11.10;;
8861;SDS011;4799;50.996;4.754;2022-09-29T09:22:57;11.00;;;9.67;;
8861;SDS011;4799;50.996;4.754;2022-09-29T09:30:39;11.80;;;8.77;;
8861;SDS011;4799;50.996;4.754;2022-09-29T09:33:33;8.50;;;7.70;;
8861;SDS011;4799;50.996;4.754;2022-09-29T09:36:10;8.93;;;8.13;;
8861;SDS011;4799;50.996;4.754;2022-09-29T09:38:46;9.03;;;7.93;;
8861;SDS011;4799;50.996;4.754;2022-09-29T09:41:20;9.00;;;8.10;;
8861;SDS011;4799;50.996;4.754;2022-09-29T09:43:49;7.97;;;6.63;;
8861;SDS011;4799;50.996;4.754;2022-09-29T09:49:05;8.47;;;7.60;;
8861;SDS011;4799;50.996;4.754;2022-09-29T09:54:30;9.67;;;6.27;;
8861;SDS011;4799;50.996;4.754;2022-09-29T09:57:06;8.63;;;6.10;;
8861;SDS011;4799;50.996;4.754;2022-09-29T10:02:26;6.30;;;5.20;;
8861;SDS011;4799;50.996;4.754;2022-09-29T10:04:54;8.13;;;5.53;;
8861;SDS011;4799;50.996;4.754;2022-09-29T10:07:21;5.70;;;5.13;;
8861;SDS011;4799;50.996;4.754;2022-09-29T10:09:49;7.60;;;5.20;;
8861;SDS011;4799;50.996;4.754;2022-09-29T10:12:17;6.20;;;4.87;;
8861;SDS011;4799;50.996;4.754;2022-09-29T10:15:47;5.60;;;4.20;;
8861;SDS011;4799;50.996;4.754;2022-09-29T10:18:05;5.20;;;4.07;;
8861;SDS011;4799;50.996;4.754;2022-09-29T10:20:39;4.27;;;3.60;;
8861;SDS011;4799;50.996;4.754;2022-09-29T10:23:22;5.63;;;3.73;;
8861;SDS011;4799;50.996;4.754;2022-09-29T10:28:54;5.50;;;3.63;;
8861;SDS011;4799;50.996;4.754;2022-09-29T10:31:24;4.87;;;4.00;;
8861;SDS011;4799;50.996;4.754;2022-09-29T10:33:58;3.60;;;3.30;;
8861;SDS011;4799;50.996;4.754;2022-09-29T10:36:31;3.80;;;3.47;;
8861;SDS011;4799;50.996;4.754;2022-09-29T10:42:13;4.50;;;3.27;;
8861;SDS011;4799;50.996;4.754;2022-09-29T10:44:51;3.17;;;2.87;;
8861;SDS011;4799;50.996;4.754;2022-09-29T10:47:19;4.80;;;3.20;;
8861;SDS011;4799;50.996;4.754;2022-09-29T10:49:46;5.27;;;3.37;;
8861;SDS011;4799;50.996;4.754;2022-09-29T10:52:16;4.07;;;2.53;;
8861;SDS011;4799;50.996;4.754;2022-09-29T10:54:52;5.07;;;3.00;;
8861;SDS011;4799;50.996;4.754;2022-09-29T10:57:26;3.17;;;2.43;;
8861;SDS011;4799;50.996;4.754;2022-09-29T10:59:55;2.60;;;2.30;;
8861;SDS011;4799;50.996;4.754;2022-09-29T11:02:27;4.77;;;2.73;;
8861;SDS011;4799;50.996;4.754;2022-09-29T11:04:59;4.00;;;2.60;;
8861;SDS011;4799;50.996;4.754;2022-09-29T11:07:36;2.77;;;2.50;;
8861;SDS011;4799;50.996;4.754;2022-09-29T11:12:55;2.80;;;2.03;;
8861;SDS011;4799;50.996;4.754;2022-09-29T11:15:28;3.40;;;2.00;;
8861;SDS011;4799;50.996;4.754;2022-09-29T11:18:16;1.83;;;1.53;;
8861;SDS011;4799;50.996;4.754;2022-09-29T11:20:50;2.70;;;1.90;;
8861;SDS011;4799;50.996;4.754;2022-09-29T11:23:30;2.00;;;1.70;;
8861;SDS011;4799;50.996;4.754;2022-09-29T11:26:06;1.73;;;1.50;;
8861;SDS011;4799;50.996;4.754;2022-09-29T11:29:14;2.33;;;1.57;;
8861;SDS011;4799;50.996;4.754;2022-09-29T11:37:22;1.60;;;1.37;;
8861;SDS011;4799;50.996;4.754;2022-09-29T11:40:01;2.97;;;1.50;;
8861;SDS011;4799;50.996;4.754;2022-09-29T11:45:34;2.10;;;1.60;;
8861;SDS011;4799;50.996;4.754;2022-09-29T11:59:38;1.30;;;1.20;;
8861;SDS011;4799;50.996;4.754;2022-09-29T12:10:52;2.20;;;1.00;;
8861;SDS011;4799;50.996;4.754;2022-09-29T12:13:47;1.93;;;1.07;;
8861;SDS011;4799;50.996;4.754;2022-09-29T12:16:20;1.57;;;1.20;;
8861;SDS011;4799;50.996;4.754;2022-09-29T12:18:55;2.23;;;1.20;;
8861;SDS011;4799;50.996;4.754;2022-09-29T12:21:46;1.77;;;1.20;;
8861;SDS011;4799;50.996;4.754;2022-09-29T12:26:55;2.97;;;1.50;;
8861;SDS011;4799;50.996;4.754;2022-09-29T12:29:31;1.47;;;1.30;;
8861;SDS011;4799;50.996;4.754;2022-09-29T12:32:09;2.40;;;1.50;;
8861;SDS011;4799;50.996;4.754;2022-09-29T12:38:00;1.60;;;1.30;;
8861;SDS011;4799;50.996;4.754;2022-09-29T12:41:27;2.70;;;1.37;;
8861;SDS011;4799;50.996;4.754;2022-09-29T12:43:29;7.53;;;1.80;;
8861;SDS011;4799;50.996;4.754;2022-09-29T12:46:02;2.77;;;1.30;;
8861;SDS011;4799;50.996;4.754;2022-09-29T12:48:45;2.00;;;1.50;;
8861;SDS011;4799;50.996;4.754;2022-09-29T12:51:41;3.07;;;1.40;;
8861;SDS011;4799;50.996;4.754;2022-09-29T12:56:42;3.60;;;1.50;;
8861;SDS011;4799;50.996;4.754;2022-09-29T12:59:51;2.03;;;1.30;;
8861;SDS011;4799;50.996;4.754;2022-09-29T13:05:30;2.63;;;1.40;;
8861;SDS011;4799;50.996;4.754;2022-09-29T13:27:46;1.87;;;1.40;;
8861;SDS011;4799;50.996;4.754;2022-09-29T13:33:01;3.67;;;1.57;;
8861;SDS011;4799;50.996;4.754;2022-09-29T13:35:41;1.20;;;1.10;;
8861;SDS011;4799;50.996;4.754;2022-09-29T13:38:17;2.83;;;1.20;;
8861;SDS011;4799;50.996;4.754;2022-09-29T13:41:08;1.40;;;1.10;;
8861;SDS011;4799;50.996;4.754;2022-09-29T13:49:10;3.23;;;1.53;;
8861;SDS011;4799;50.996;4.754;2022-09-29T13:54:37;1.60;;;1.23;;
8861;SDS011;4799;50.996;4.754;2022-09-29T13:57:06;1.23;;;1.00;;
8861;SDS011;4799;50.996;4.754;2022-09-29T14:02:34;2.40;;;1.10;;
8861;SDS011;4799;50.996;4.754;2022-09-29T14:07:48;3.17;;;1.30;;
8861;SDS011;4799;50.996;4.754;2022-09-29T14:10:31;2.27;;;1.40;;
8861;SDS011;4799;50.996;4.754;2022-09-29T14:15:48;2.00;;;1.30;;
8861;SDS011;4799;50.996;4.754;2022-09-29T14:30:00;1.50;;;1.17;;
8861;SDS011;4799;50.996;4.754;2022-09-29T14:32:36;2.90;;;1.50;;
8861;SDS011;4799;50.996;4.754;2022-09-29T14:35:09;4.03;;;1.37;;
8861;SDS011;4799;50.996;4.754;2022-09-29T14:38:08;2.00;;;1.30;;
8861;SDS011;4799;50.996;4.754;2022-09-29T14:46:47;2.47;;;1.80;;
8861;SDS011;4799;50.996;4.754;2022-09-29T14:49:50;2.80;;;2.00;;
8861;SDS011;4799;50.996;4.754;2022-09-29T14:52:51;1.73;;;1.43;;
8861;SDS011;4799;50.996;4.754;2022-09-29T14:58:42;2.53;;;1.50;;
8861;SDS011;4799;50.996;4.754;2022-09-29T15:01:29;2.60;;;1.33;;
8861;SDS011;4799;50.996;4.754;2022-09-29T15:04:17;2.20;;;1.20;;
8861;SDS011;4799;50.996;4.754;2022-09-29T15:06:47;3.70;;;1.60;;
8861;SDS011;4799;50.996;4.754;2022-09-29T15:09:15;2.57;;;1.30;;
8861;SDS011;4799;50.996;4.754;2022-09-29T15:11:43;2.83;;;1.90;;
8861;SDS011;4799;50.996;4.754;2022-09-29T15:14:23;3.20;;;1.70;;
8861;SDS011;4799;50.996;4.754;2022-09-29T15:27:51;1.57;;;1.20;;
8861;SDS011;4799;50.996;4.754;2022-09-29T15:30:20;2.57;;;1.40;;
8861;SDS011;4799;50.996;4.754;2022-09-29T15:32:47;3.07;;;1.50;;
8861;SDS011;4799;50.996;4.754;2022-09-29T15:35:19;4.03;;;1.40;;
8861;SDS011;4799;50.996;4.754;2022-09-29T15:40:20;2.73;;;1.47;;
8861;SDS011;4799;50.996;4.754;2022-09-29T15:42:48;2.93;;;1.60;;
8861;SDS011;4799;50.996;4.754;2022-09-29T15:45:20;3.20;;;1.70;;
8861;SDS011;4799;50.996;4.754;2022-09-29T15:48:01;2.27;;;1.40;;
8861;SDS011;4799;50.996;4.754;2022-09-29T15:50:32;4.13;;;3.13;;
8861;SDS011;4799;50.996;4.754;2022-09-29T15:53:05;2.83;;;2.43;;
8861;SDS011;4799;50.996;4.754;2022-09-29T15:55:30;6.87;;;5.23;;
8861;SDS011;4799;50.996;4.754;2022-09-29T15:57:57;4.87;;;2.93;;
8861;SDS011;4799;50.996;4.754;2022-09-29T16:00:41;3.27;;;2.60;;
8861;SDS011;4799;50.996;4.754;2022-09-29T16:03:13;12.90;;;8.10;;
8861;SDS011;4799;50.996;4.754;2022-09-29T16:06:02;5.30;;;4.30;;
8861;SDS011;4799;50.996;4.754;2022-09-29T16:08:30;3.70;;;3.00;;
8861;SDS011;4799;50.996;4.754;2022-09-29T16:11:04;4.90;;;2.27;;
8861;SDS011;4799;50.996;4.754;2022-09-29T16:13:37;3.90;;;1.60;;
8861;SDS011;4799;50.996;4.754;2022-09-29T16:16:14;1.63;;;1.50;;
8861;SDS011;4799;50.996;4.754;2022-09-29T16:21:14;2.10;;;1.30;;
8861;SDS011;4799;50.996;4.754;2022-09-29T16:23:50;2.73;;;1.30;;
8861;SDS011;4799;50.996;4.754;2022-09-29T16:31:54;3.20;;;1.60;;
8861;SDS011;4799;50.996;4.754;2022-09-29T16:36:51;2.67;;;1.50;;
8861;SDS011;4799;50.996;4.754;2022-09-29T16:39:44;2.83;;;1.73;;
8861;SDS011;4799;50.996;4.754;2022-09-29T16:42:18;2.00;;;1.30;;
8861;SDS011;4799;50.996;4.754;2022-09-29T16:44:48;2.20;;;1.33;;
8861;SDS011;4799;50.996;4.754;2022-09-29T16:47:18;2.50;;;1.37;;
8861;SDS011;4799;50.996;4.754;2022-09-29T16:49:49;2.53;;;1.43;;
8861;SDS011;4799;50.996;4.754;2022-09-29T16:52:24;5.23;;;2.20;;
8861;SDS011;4799;50.996;4.754;2022-09-29T16:54:53;4.63;;;1.80;;
8861;SDS011;4799;50.996;4.754;2022-09-29T16:57:48;3.80;;;2.60;;
8861;SDS011;4799;50.996;4.754;2022-09-29T17:00:19;6.30;;;3.13;;
8861;SDS011;4799;50.996;4.754;2022-09-29T17:02:49;4.73;;;2.60;;
8861;SDS011;4799;50.996;4.754;2022-09-29T17:05:22;4.97;;;3.70;;
8861;SDS011;4799;50.996;4.754;2022-09-29T17:07:49;5.47;;;4.77;;
8861;SDS011;4799;50.996;4.754;2022-09-29T17:10:25;6.77;;;4.30;;
8861;SDS011;4799;50.996;4.754;2022-09-29T17:12:51;6.97;;;4.30;;
8861;SDS011;4799;50.996;4.754;2022-09-29T17:15:17;6.73;;;4.53;;
8861;SDS011;4799;50.996;4.754;2022-09-29T17:17:43;6.93;;;4.53;;
8861;SDS011;4799;50.996;4.754;2022-09-29T17:20:12;6.10;;;4.37;;
8861;SDS011;4799;50.996;4.754;2022-09-29T17:22:40;4.90;;;4.20;;
8861;SDS011;4799;50.996;4.754;2022-09-29T17:25:06;4.73;;;3.93;;
8861;SDS011;4799;50.996;4.754;2022-09-29T17:27:34;5.00;;;4.10;;
8861;SDS011;4799;50.996;4.754;2022-09-29T17:30:20;5.63;;;4.40;;
8861;SDS011;4799;50.996;4.754;2022-09-29T17:32:48;6.47;;;4.20;;
8861;SDS011;4799;50.996;4.754;2022-09-29T17:35:16;4.27;;;3.87;;
8861;SDS011;4799;50.996;4.754;2022-09-29T17:37:43;5.13;;;4.63;;
8861;SDS011;4799;50.996;4.754;2022-09-29T17:42:48;5.90;;;5.33;;
8861;SDS011;4799;50.996;4.754;2022-09-29T17:45:15;7.07;;;5.20;;
8861;SDS011;4799;50.996;4.754;2022-09-29T17:47:44;5.93;;;5.40;;
8861;SDS011;4799;50.996;4.754;2022-09-29T17:50:16;7.10;;;6.40;;
8861;SDS011;4799;50.996;4.754;2022-09-29T17:52:53;6.27;;;5.67;;
8861;SDS011;4799;50.996;4.754;2022-09-29T17:55:19;6.57;;;5.50;;
8861;SDS011;4799;50.996;4.754;2022-09-29T17:57:47;6.47;;;5.80;;
8861;SDS011;4799;50.996;4.754;2022-09-29T18:00:27;6.33;;;5.80;;
8861;SDS011;4799;50.996;4.754;2022-09-29T18:02:57;5.97;;;5.47;;
8861;SDS011;4799;50.996;4.754;2022-09-29T18:05:24;7.17;;;6.57;;
8861;SDS011;4799;50.996;4.754;2022-09-29T18:07:51;7.10;;;6.40;;
8861;SDS011;4799;50.996;4.754;2022-09-29T18:10:26;6.67;;;6.07;;
8861;SDS011;4799;50.996;4.754;2022-09-29T18:12:59;6.40;;;5.80;;
8861;SDS011;4799;50.996;4.754;2022-09-29T18:15:26;7.00;;;6.30;;
8861;SDS011;4799;50.996;4.754;2022-09-29T18:17:55;12.30;;;11.10;;
8861;SDS011;4799;50.996;4.754;2022-09-29T18:20:22;9.50;;;8.60;;
8861;SDS011;4799;50.996;4.754;2022-09-29T18:22:49;8.40;;;7.53;;
8861;SDS011;4799;50.996;4.754;2022-09-29T18:25:15;7.90;;;7.10;;
8861;SDS011;4799;50.996;4.754;2022-09-29T18:27:43;8.50;;;7.70;;
8861;SDS011;4799;50.996;4.754;2022-09-29T18:33:13;7.77;;;7.13;;
8861;SDS011;4799;50.996;4.754;2022-09-29T18:35:42;9.80;;;7.30;;
8861;SDS011;4799;50.996;4.754;2022-09-29T18:38:09;7.33;;;6.63;;
8861;SDS011;4799;50.996;4.754;2022-09-29T18:40:36;7.83;;;7.13;;
8861;SDS011;4799;50.996;4.754;2022-09-29T18:43:03;9.00;;;7.57;;
8861;SDS011;4799;50.996;4.754;2022-09-29T18:45:30;8.67;;;7.97;;
8861;SDS011;4799;50.996;4.754;2022-09-29T18:48:00;9.70;;;8.17;;
8861;SDS011;4799;50.996;4.754;2022-09-29T18:50:29;7.93;;;7.17;;